sensor_id;sensor_type;location;lat;lon;timestamp;P1;durP1;ratioP1;P2;durP2;ratioP2
38853;SDS011;24606;51.992;4.198;2023-07-08T00:01:52;3.70;;;1.70;;
38853;SDS011;24606;51.992;4.198;2023-07-08T00:06:55;2.03;;;1.40;;
38853;SDS011;24606;51.992;4.198;2023-07-08T00:11:57;4.97;;;1.85;;
38853;SDS011;24606;51.992;4.198;2023-07-08T00:16:59;3.28;;;1.50;;
38853;SDS011;24606;51.992;4.198;2023-07-08T00:22:04;3.05;;;1.48;;
38853;SDS011;24606;51.992;4.198;2023-07-08T00:27:10;3.08;;;1.67;;
38853;SDS011;24606;51.992;4.198;2023-07-08T00:32:13;2.67;;;1.65;;
38853;SDS011;24606;51.992;4.198;2023-07-08T00:37:18;1.95;;;1.70;;
38853;SDS011;24606;51.992;4.198;2023-07-08T00:42:20;2.72;;;1.73;;
38853;SDS011;24606;51.992;4.198;2023-07-08T00:47:25;2.33;;;1.67;;
38853;SDS011;24606;51.992;4.198;2023-07-08T00:52:29;7.07;;;1.60;;
38853;SDS011;24606;51.992;4.198;2023-07-08T00:57:31;1.67;;;1.58;;
38853;SDS011;24606;51.992;4.198;2023-07-08T01:02:38;1.73;;;1.30;;
38853;SDS011;24606;51.992;4.198;2023-07-08T01:07:45;2.72;;;1.67;;
38853;SDS011;24606;51.992;4.198;2023-07-08T01:12:52;2.35;;;1.65;;
38853;SDS011;24606;51.992;4.198;2023-07-08T01:17:58;2.25;;;1.40;;
38853;SDS011;24606;51.992;4.198;2023-07-08T01:23:02;4.20;;;1.60;;
38853;SDS011;24606;51.992;4.198;2023-07-08T01:28:05;3.58;;;1.40;;
38853;SDS011;24606;51.992;4.198;2023-07-08T01:33:10;1.45;;;1.17;;
38853;SDS011;24606;51.992;4.198;2023-07-08T01:38:21;5.43;;;1.30;;
38853;SDS011;24606;51.992;4.198;2023-07-08T01:43:26;2.05;;;1.38;;
38853;SDS011;24606;51.992;4.198;2023-07-08T01:48:28;2.72;;;1.50;;
38853;SDS011;24606;51.992;4.198;2023-07-08T01:53:36;3.53;;;1.38;;
38853;SDS011;24606;51.992;4.198;2023-07-08T01:58:40;2.35;;;1.48;;
38853;SDS011;24606;51.992;4.198;2023-07-08T02:03:42;3.55;;;1.60;;
38853;SDS011;24606;51.992;4.198;2023-07-08T02:08:48;2.03;;;1.40;;
38853;SDS011;24606;51.992;4.198;2023-07-08T02:13:51;1.13;;;0.95;;
38853;SDS011;24606;51.992;4.198;2023-07-08T02:18:53;1.63;;;1.15;;
38853;SDS011;24606;51.992;4.198;2023-07-08T02:23:56;1.33;;;1.13;;
38853;SDS011;24606;51.992;4.198;2023-07-08T02:28:58;2.40;;;1.50;;
38853;SDS011;24606;51.992;4.198;2023-07-08T02:34:00;1.52;;;1.20;;
38853;SDS011;24606;51.992;4.198;2023-07-08T02:39:03;2.28;;;1.30;;
38853;SDS011;24606;51.992;4.198;2023-07-08T02:44:06;1.48;;;1.20;;
38853;SDS011;24606;51.992;4.198;2023-07-08T02:49:07;1.95;;;1.10;;
38853;SDS011;24606;51.992;4.198;2023-07-08T02:54:11;2.13;;;1.48;;
38853;SDS011;24606;51.992;4.198;2023-07-08T02:59:12;4.22;;;1.35;;
38853;SDS011;24606;51.992;4.198;2023-07-08T03:15:28;3.72;;;1.50;;
38853;SDS011;24606;51.992;4.198;2023-07-08T03:20:29;3.30;;;1.27;;
38853;SDS011;24606;51.992;4.198;2023-07-08T03:25:32;1.80;;;1.25;;
38853;SDS011;24606;51.992;4.198;2023-07-08T03:30:38;1.65;;;1.40;;
38853;SDS011;24606;51.992;4.198;2023-07-08T03:35:40;2.53;;;1.30;;
38853;SDS011;24606;51.992;4.198;2023-07-08T03:40:42;2.00;;;1.55;;
38853;SDS011;24606;51.992;4.198;2023-07-08T03:45:46;2.30;;;1.60;;
38853;SDS011;24606;51.992;4.198;2023-07-08T03:50:48;2.67;;;1.40;;
38853;SDS011;24606;51.992;4.198;2023-07-08T03:55:49;1.88;;;1.23;;
38853;SDS011;24606;51.992;4.198;2023-07-08T04:00:52;2.25;;;1.42;;
38853;SDS011;24606;51.992;4.198;2023-07-08T04:05:55;1.75;;;1.45;;
38853;SDS011;24606;51.992;4.198;2023-07-08T04:10:57;2.35;;;1.30;;
38853;SDS011;24606;51.992;4.198;2023-07-08T04:16:00;2.25;;;1.38;;
38853;SDS011;24606;51.992;4.198;2023-07-08T04:21:05;3.05;;;1.73;;
38853;SDS011;24606;51.992;4.198;2023-07-08T04:26:07;2.85;;;1.50;;
38853;SDS011;24606;51.992;4.198;2023-07-08T04:31:11;2.47;;;1.55;;
38853;SDS011;24606;51.992;4.198;2023-07-08T04:36:13;2.50;;;1.40;;
38853;SDS011;24606;51.992;4.198;2023-07-08T04:41:15;2.45;;;1.50;;
38853;SDS011;24606;51.992;4.198;2023-07-08T04:46:19;2.78;;;1.50;;
38853;SDS011;24606;51.992;4.198;2023-07-08T04:51:28;2.35;;;1.40;;
38853;SDS011;24606;51.992;4.198;2023-07-08T04:56:34;2.38;;;1.33;;
38853;SDS011;24606;51.992;4.198;2023-07-08T05:01:39;3.25;;;1.30;;
38853;SDS011;24606;51.992;4.198;2023-07-08T05:06:41;1.88;;;1.33;;
38853;SDS011;24606;51.992;4.198;2023-07-08T05:11:44;1.88;;;1.27;;
38853;SDS011;24606;51.992;4.198;2023-07-08T05:16:47;2.83;;;1.35;;
38853;SDS011;24606;51.992;4.198;2023-07-08T05:21:49;1.42;;;1.17;;
38853;SDS011;24606;51.992;4.198;2023-07-08T05:26:51;2.83;;;1.35;;
38853;SDS011;24606;51.992;4.198;2023-07-08T05:31:54;1.17;;;1.08;;
38853;SDS011;24606;51.992;4.198;2023-07-08T05:36:56;5.00;;;1.73;;
38853;SDS011;24606;51.992;4.198;2023-07-08T05:41:57;1.70;;;1.30;;
38853;SDS011;24606;51.992;4.198;2023-07-08T05:47:01;2.80;;;1.45;;
38853;SDS011;24606;51.992;4.198;2023-07-08T05:52:03;5.60;;;1.55;;
38853;SDS011;24606;51.992;4.198;2023-07-08T05:57:10;1.75;;;1.35;;
38853;SDS011;24606;51.992;4.198;2023-07-08T06:02:14;1.80;;;1.40;;
38853;SDS011;24606;51.992;4.198;2023-07-08T06:07:16;2.03;;;1.40;;
38853;SDS011;24606;51.992;4.198;2023-07-08T06:12:17;2.45;;;1.63;;
38853;SDS011;24606;51.992;4.198;2023-07-08T06:17:21;2.35;;;1.50;;
38853;SDS011;24606;51.992;4.198;2023-07-08T06:22:23;4.85;;;1.60;;
38853;SDS011;24606;51.992;4.198;2023-07-08T06:27:24;3.05;;;1.80;;
38853;SDS011;24606;51.992;4.198;2023-07-08T06:32:28;3.53;;;1.70;;
38853;SDS011;24606;51.992;4.198;2023-07-08T06:37:30;3.92;;;1.95;;
38853;SDS011;24606;51.992;4.198;2023-07-08T06:42:32;4.18;;;2.08;;
38853;SDS011;24606;51.992;4.198;2023-07-08T06:47:35;2.97;;;1.63;;
38853;SDS011;24606;51.992;4.198;2023-07-08T06:52:37;4.63;;;1.55;;
38853;SDS011;24606;51.992;4.198;2023-07-08T06:57:39;5.50;;;1.30;;
38853;SDS011;24606;51.992;4.198;2023-07-08T07:02:42;2.90;;;1.73;;
38853;SDS011;24606;51.992;4.198;2023-07-08T07:07:44;2.10;;;1.60;;
38853;SDS011;24606;51.992;4.198;2023-07-08T07:12:46;3.75;;;1.70;;
38853;SDS011;24606;51.992;4.198;2023-07-08T07:17:49;2.30;;;1.40;;
38853;SDS011;24606;51.992;4.198;2023-07-08T07:22:51;3.13;;;1.58;;
38853;SDS011;24606;51.992;4.198;2023-07-08T07:27:53;2.63;;;1.80;;
38853;SDS011;24606;51.992;4.198;2023-07-08T07:32:59;3.17;;;1.17;;
38853;SDS011;24606;51.992;4.198;2023-07-08T07:38:01;2.55;;;1.60;;
38853;SDS011;24606;51.992;4.198;2023-07-08T07:43:03;2.80;;;1.98;;
38853;SDS011;24606;51.992;4.198;2023-07-08T07:48:06;1.45;;;1.10;;
38853;SDS011;24606;51.992;4.198;2023-07-08T07:53:08;5.10;;;1.70;;
38853;SDS011;24606;51.992;4.198;2023-07-08T07:58:10;5.18;;;1.65;;
38853;SDS011;24606;51.992;4.198;2023-07-08T08:03:13;4.80;;;2.45;;
38853;SDS011;24606;51.992;4.198;2023-07-08T08:08:17;3.03;;;1.80;;
38853;SDS011;24606;51.992;4.198;2023-07-08T08:13:20;5.80;;;2.25;;
38853;SDS011;24606;51.992;4.198;2023-07-08T08:18:24;5.18;;;2.78;;
38853;SDS011;24606;51.992;4.198;2023-07-08T08:23:25;2.88;;;1.88;;
38853;SDS011;24606;51.992;4.198;2023-07-08T08:28:27;5.63;;;3.17;;
38853;SDS011;24606;51.992;4.198;2023-07-08T08:33:31;3.05;;;2.05;;
38853;SDS011;24606;51.992;4.198;2023-07-08T08:38:32;2.83;;;1.67;;
38853;SDS011;24606;51.992;4.198;2023-07-08T08:43:35;2.78;;;2.03;;
38853;SDS011;24606;51.992;4.198;2023-07-08T08:48:43;3.33;;;2.17;;
38853;SDS011;24606;51.992;4.198;2023-07-08T08:53:52;5.20;;;3.13;;
38853;SDS011;24606;51.992;4.198;2023-07-08T08:58:58;5.72;;;2.63;;
38853;SDS011;24606;51.992;4.198;2023-07-08T09:04:10;5.35;;;2.38;;
38853;SDS011;24606;51.992;4.198;2023-07-08T09:09:17;4.97;;;3.47;;
38853;SDS011;24606;51.992;4.198;2023-07-08T09:14:22;8.60;;;3.30;;
38853;SDS011;24606;51.992;4.198;2023-07-08T09:19:28;3.53;;;2.53;;
38853;SDS011;24606;51.992;4.198;2023-07-08T09:24:36;8.30;;;4.97;;
38853;SDS011;24606;51.992;4.198;2023-07-08T09:29:42;10.57;;;4.22;;
38853;SDS011;24606;51.992;4.198;2023-07-08T09:34:46;6.60;;;3.50;;
38853;SDS011;24606;51.992;4.198;2023-07-08T09:39:52;3.85;;;2.35;;
38853;SDS011;24606;51.992;4.198;2023-07-08T09:44:55;7.18;;;3.80;;
38853;SDS011;24606;51.992;4.198;2023-07-08T09:49:59;12.18;;;4.57;;
38853;SDS011;24606;51.992;4.198;2023-07-08T09:55:02;7.70;;;4.15;;
38853;SDS011;24606;51.992;4.198;2023-07-08T10:00:06;6.32;;;3.50;;
38853;SDS011;24606;51.992;4.198;2023-07-08T10:05:17;5.38;;;3.45;;
38853;SDS011;24606;51.992;4.198;2023-07-08T10:10:22;6.15;;;3.63;;
38853;SDS011;24606;51.992;4.198;2023-07-08T10:15:30;5.45;;;3.25;;
38853;SDS011;24606;51.992;4.198;2023-07-08T10:20:38;4.65;;;2.80;;
38853;SDS011;24606;51.992;4.198;2023-07-08T10:25:49;4.32;;;2.38;;
38853;SDS011;24606;51.992;4.198;2023-07-08T10:36:13;4.55;;;2.67;;
38853;SDS011;24606;51.992;4.198;2023-07-08T10:41:25;3.05;;;2.75;;
38853;SDS011;24606;51.992;4.198;2023-07-08T10:46:38;14.52;;;3.70;;
38853;SDS011;24606;51.992;4.198;2023-07-08T10:51:47;2.67;;;2.10;;
38853;SDS011;24606;51.992;4.198;2023-07-08T10:56:58;4.90;;;2.85;;
38853;SDS011;24606;51.992;4.198;2023-07-08T11:02:20;14.27;;;3.90;;
38853;SDS011;24606;51.992;4.198;2023-07-08T11:07:40;6.10;;;3.67;;
38853;SDS011;24606;51.992;4.198;2023-07-08T11:12:47;9.63;;;3.83;;
38853;SDS011;24606;51.992;4.198;2023-07-08T11:17:55;3.50;;;2.28;;
38853;SDS011;24606;51.992;4.198;2023-07-08T11:23:04;5.05;;;2.90;;
38853;SDS011;24606;51.992;4.198;2023-07-08T11:28:19;9.23;;;3.55;;
38853;SDS011;24606;51.992;4.198;2023-07-08T11:33:24;10.13;;;5.22;;
38853;SDS011;24606;51.992;4.198;2023-07-08T11:38:27;14.68;;;8.13;;
38853;SDS011;24606;51.992;4.198;2023-07-08T11:43:33;5.20;;;2.97;;
38853;SDS011;24606;51.992;4.198;2023-07-08T11:48:39;6.25;;;3.63;;
38853;SDS011;24606;51.992;4.198;2023-07-08T11:53:49;5.90;;;3.00;;
38853;SDS011;24606;51.992;4.198;2023-07-08T11:59:04;4.68;;;2.60;;
38853;SDS011;24606;51.992;4.198;2023-07-08T12:04:17;6.15;;;2.88;;
38853;SDS011;24606;51.992;4.198;2023-07-08T12:09:36;7.60;;;5.00;;
38853;SDS011;24606;51.992;4.198;2023-07-08T12:14:39;13.30;;;4.30;;
38853;SDS011;24606;51.992;4.198;2023-07-08T12:19:41;6.88;;;4.25;;
38853;SDS011;24606;51.992;4.198;2023-07-08T12:24:46;10.65;;;4.38;;
38853;SDS011;24606;51.992;4.198;2023-07-08T12:29:48;10.20;;;4.90;;
38853;SDS011;24606;51.992;4.198;2023-07-08T12:34:50;8.15;;;4.57;;
38853;SDS011;24606;51.992;4.198;2023-07-08T12:39:57;14.55;;;4.63;;
38853;SDS011;24606;51.992;4.198;2023-07-08T12:45:07;5.45;;;4.22;;
38853;SDS011;24606;51.992;4.198;2023-07-08T12:50:15;9.63;;;4.75;;
38853;SDS011;24606;51.992;4.198;2023-07-08T12:55:18;10.23;;;4.50;;
38853;SDS011;24606;51.992;4.198;2023-07-08T13:00:21;12.32;;;4.40;;
38853;SDS011;24606;51.992;4.198;2023-07-08T13:05:26;7.88;;;4.95;;
38853;SDS011;24606;51.992;4.198;2023-07-08T13:10:31;10.15;;;4.95;;
38853;SDS011;24606;51.992;4.198;2023-07-08T13:15:36;10.23;;;4.60;;
38853;SDS011;24606;51.992;4.198;2023-07-08T13:20:40;8.82;;;4.47;;
38853;SDS011;24606;51.992;4.198;2023-07-08T13:25:46;5.18;;;3.92;;
38853;SDS011;24606;51.992;4.198;2023-07-08T13:30:51;10.05;;;4.15;;
38853;SDS011;24606;51.992;4.198;2023-07-08T13:35:54;9.98;;;3.90;;
38853;SDS011;24606;51.992;4.198;2023-07-08T13:41:00;9.70;;;4.38;;
38853;SDS011;24606;51.992;4.198;2023-07-08T13:46:04;13.10;;;4.00;;
38853;SDS011;24606;51.992;4.198;2023-07-08T13:51:07;7.00;;;4.05;;
38853;SDS011;24606;51.992;4.198;2023-07-08T13:56:13;7.40;;;4.00;;
38853;SDS011;24606;51.992;4.198;2023-07-08T14:01:20;5.35;;;3.78;;
38853;SDS011;24606;51.992;4.198;2023-07-08T14:06:25;5.38;;;3.45;;
38853;SDS011;24606;51.992;4.198;2023-07-08T14:11:32;12.30;;;4.10;;
38853;SDS011;24606;51.992;4.198;2023-07-08T14:16:34;7.13;;;4.55;;
38853;SDS011;24606;51.992;4.198;2023-07-08T14:21:39;9.20;;;4.45;;
38853;SDS011;24606;51.992;4.198;2023-07-08T14:26:43;5.70;;;3.92;;
38853;SDS011;24606;51.992;4.198;2023-07-08T14:31:45;7.32;;;4.22;;
38853;SDS011;24606;51.992;4.198;2023-07-08T14:36:47;6.18;;;3.85;;
38853;SDS011;24606;51.992;4.198;2023-07-08T14:41:50;5.30;;;3.33;;
38853;SDS011;24606;51.992;4.198;2023-07-08T14:46:52;5.40;;;4.20;;
38853;SDS011;24606;51.992;4.198;2023-07-08T14:51:55;9.20;;;4.57;;
38853;SDS011;24606;51.992;4.198;2023-07-08T14:56:58;5.20;;;3.20;;
38853;SDS011;24606;51.992;4.198;2023-07-08T15:02:02;3.67;;;2.70;;
38853;SDS011;24606;51.992;4.198;2023-07-08T15:07:16;4.50;;;2.78;;
38853;SDS011;24606;51.992;4.198;2023-07-08T15:12:19;7.45;;;5.18;;
38853;SDS011;24606;51.992;4.198;2023-07-08T15:17:21;7.05;;;4.40;;
38853;SDS011;24606;51.992;4.198;2023-07-08T15:22:23;8.18;;;3.67;;
38853;SDS011;24606;51.992;4.198;2023-07-08T15:27:26;13.27;;;6.43;;
38853;SDS011;24606;51.992;4.198;2023-07-08T15:32:28;5.22;;;3.75;;
38853;SDS011;24606;51.992;4.198;2023-07-08T15:37:30;7.82;;;5.22;;
38853;SDS011;24606;51.992;4.198;2023-07-08T15:42:33;3.92;;;2.95;;
38853;SDS011;24606;51.992;4.198;2023-07-08T15:47:35;7.10;;;4.90;;
38853;SDS011;24606;51.992;4.198;2023-07-08T15:52:37;6.97;;;5.28;;
38853;SDS011;24606;51.992;4.198;2023-07-08T15:57:42;11.88;;;5.25;;
38853;SDS011;24606;51.992;4.198;2023-07-08T16:02:47;11.38;;;5.47;;
38853;SDS011;24606;51.992;4.198;2023-07-08T16:07:51;9.00;;;4.63;;
38853;SDS011;24606;51.992;4.198;2023-07-08T16:12:55;6.57;;;4.50;;
38853;SDS011;24606;51.992;4.198;2023-07-08T16:17:58;6.38;;;3.63;;
38853;SDS011;24606;51.992;4.198;2023-07-08T16:23:00;6.00;;;4.57;;
38853;SDS011;24606;51.992;4.198;2023-07-08T16:28:04;16.00;;;6.00;;
38853;SDS011;24606;51.992;4.198;2023-07-08T16:33:06;6.35;;;4.43;;
38853;SDS011;24606;51.992;4.198;2023-07-08T16:38:09;5.43;;;3.47;;
38853;SDS011;24606;51.992;4.198;2023-07-08T16:43:16;7.25;;;5.90;;
38853;SDS011;24606;51.992;4.198;2023-07-08T16:48:22;8.73;;;5.72;;
38853;SDS011;24606;51.992;4.198;2023-07-08T16:53:24;17.55;;;7.22;;
38853;SDS011;24606;51.992;4.198;2023-07-08T16:58:27;8.93;;;5.22;;
38853;SDS011;24606;51.992;4.198;2023-07-08T17:03:29;9.63;;;5.35;;
38853;SDS011;24606;51.992;4.198;2023-07-08T17:08:32;9.70;;;5.10;;
38853;SDS011;24606;51.992;4.198;2023-07-08T17:13:36;10.95;;;5.25;;
38853;SDS011;24606;51.992;4.198;2023-07-08T17:18:38;8.45;;;4.97;;
38853;SDS011;24606;51.992;4.198;2023-07-08T17:23:40;9.80;;;5.15;;
38853;SDS011;24606;51.992;4.198;2023-07-08T17:28:43;9.88;;;5.38;;
38853;SDS011;24606;51.992;4.198;2023-07-08T17:33:49;11.15;;;5.65;;
38853;SDS011;24606;51.992;4.198;2023-07-08T17:38:54;8.50;;;5.13;;
38853;SDS011;24606;51.992;4.198;2023-07-08T17:43:58;6.43;;;4.35;;
38853;SDS011;24606;51.992;4.198;2023-07-08T17:49:00;15.00;;;5.03;;
38853;SDS011;24606;51.992;4.198;2023-07-08T17:54:03;11.00;;;5.43;;
38853;SDS011;24606;51.992;4.198;2023-07-08T17:59:06;10.05;;;5.40;;
38853;SDS011;24606;51.992;4.198;2023-07-08T18:04:14;8.15;;;4.55;;
38853;SDS011;24606;51.992;4.198;2023-07-08T18:09:16;7.65;;;4.93;;
38853;SDS011;24606;51.992;4.198;2023-07-08T18:14:19;10.27;;;5.28;;
38853;SDS011;24606;51.992;4.198;2023-07-08T18:19:21;12.63;;;6.05;;
38853;SDS011;24606;51.992;4.198;2023-07-08T18:24:23;7.68;;;4.95;;
38853;SDS011;24606;51.992;4.198;2023-07-08T18:29:26;8.80;;;4.53;;
38853;SDS011;24606;51.992;4.198;2023-07-08T18:34:28;11.38;;;5.00;;
38853;SDS011;24606;51.992;4.198;2023-07-08T18:39:30;7.47;;;5.10;;
38853;SDS011;24606;51.992;4.198;2023-07-08T18:44:33;9.82;;;5.65;;
38853;SDS011;24606;51.992;4.198;2023-07-08T18:49:37;8.55;;;5.30;;
38853;SDS011;24606;51.992;4.198;2023-07-08T18:54:39;14.98;;;5.03;;
38853;SDS011;24606;51.992;4.198;2023-07-08T18:59:42;6.43;;;4.50;;
38853;SDS011;24606;51.992;4.198;2023-07-08T19:04:44;7.72;;;4.55;;
38853;SDS011;24606;51.992;4.198;2023-07-08T19:09:46;10.73;;;4.93;;
38853;SDS011;24606;51.992;4.198;2023-07-08T19:14:49;14.63;;;5.03;;
38853;SDS011;24606;51.992;4.198;2023-07-08T19:19:51;9.80;;;4.18;;
38853;SDS011;24606;51.992;4.198;2023-07-08T19:24:53;3.45;;;2.60;;
38853;SDS011;24606;51.992;4.198;2023-07-08T19:29:56;3.95;;;2.88;;
38853;SDS011;24606;51.992;4.198;2023-07-08T19:34:58;3.03;;;2.72;;
38853;SDS011;24606;51.992;4.198;2023-07-08T19:40:00;3.67;;;2.80;;
38853;SDS011;24606;51.992;4.198;2023-07-08T19:45:05;4.88;;;3.25;;
38853;SDS011;24606;51.992;4.198;2023-07-08T19:50:15;4.28;;;2.90;;
38853;SDS011;24606;51.992;4.198;2023-07-08T19:55:18;5.80;;;3.05;;
38853;SDS011;24606;51.992;4.198;2023-07-08T20:00:22;5.78;;;3.25;;
38853;SDS011;24606;51.992;4.198;2023-07-08T20:05:27;4.53;;;3.13;;
38853;SDS011;24606;51.992;4.198;2023-07-08T20:10:30;4.60;;;3.35;;
38853;SDS011;24606;51.992;4.198;2023-07-08T20:15:33;3.50;;;2.90;;
38853;SDS011;24606;51.992;4.198;2023-07-08T20:20:35;5.07;;;3.25;;
38853;SDS011;24606;51.992;4.198;2023-07-08T20:25:36;4.88;;;3.45;;
38853;SDS011;24606;51.992;4.198;2023-07-08T20:30:40;4.32;;;3.15;;
38853;SDS011;24606;51.992;4.198;2023-07-08T20:35:41;3.78;;;2.97;;
38853;SDS011;24606;51.992;4.198;2023-07-08T20:40:44;5.53;;;3.42;;
38853;SDS011;24606;51.992;4.198;2023-07-08T20:45:48;4.93;;;3.33;;
38853;SDS011;24606;51.992;4.198;2023-07-08T20:50:51;4.43;;;3.33;;
38853;SDS011;24606;51.992;4.198;2023-07-08T20:55:53;4.63;;;3.65;;
38853;SDS011;24606;51.992;4.198;2023-07-08T21:00:56;3.70;;;3.33;;
38853;SDS011;24606;51.992;4.198;2023-07-08T21:05:58;4.40;;;4.00;;
38853;SDS011;24606;51.992;4.198;2023-07-08T21:11:01;5.57;;;4.32;;
38853;SDS011;24606;51.992;4.198;2023-07-08T21:16:07;5.72;;;3.65;;
38853;SDS011;24606;51.992;4.198;2023-07-08T21:21:13;5.03;;;3.65;;
38853;SDS011;24606;51.992;4.198;2023-07-08T21:26:16;4.75;;;3.63;;
38853;SDS011;24606;51.992;4.198;2023-07-08T21:31:22;7.07;;;3.85;;
38853;SDS011;24606;51.992;4.198;2023-07-08T21:36:25;6.80;;;4.55;;
38853;SDS011;24606;51.992;4.198;2023-07-08T21:41:29;8.00;;;4.30;;
38853;SDS011;24606;51.992;4.198;2023-07-08T21:46:33;6.70;;;3.95;;
38853;SDS011;24606;51.992;4.198;2023-07-08T21:51:35;6.82;;;4.13;;
38853;SDS011;24606;51.992;4.198;2023-07-08T21:56:37;6.63;;;3.88;;
38853;SDS011;24606;51.992;4.198;2023-07-08T22:01:41;5.45;;;4.10;;
38853;SDS011;24606;51.992;4.198;2023-07-08T22:06:43;7.22;;;4.20;;
38853;SDS011;24606;51.992;4.198;2023-07-08T22:11:45;5.53;;;4.10;;
38853;SDS011;24606;51.992;4.198;2023-07-08T22:16:48;5.10;;;4.07;;
38853;SDS011;24606;51.992;4.198;2023-07-08T22:21:52;6.75;;;4.07;;
38853;SDS011;24606;51.992;4.198;2023-07-08T22:26:55;5.28;;;3.97;;
38853;SDS011;24606;51.992;4.198;2023-07-08T22:31:58;8.55;;;4.78;;
38853;SDS011;24606;51.992;4.198;2023-07-08T22:37:00;5.78;;;4.30;;
38853;SDS011;24606;51.992;4.198;2023-07-08T22:42:02;8.27;;;5.00;;
38853;SDS011;24606;51.992;4.198;2023-07-08T22:47:07;7.10;;;5.47;;
38853;SDS011;24606;51.992;4.198;2023-07-08T22:52:14;6.78;;;4.72;;
38853;SDS011;24606;51.992;4.198;2023-07-08T22:57:23;8.80;;;4.95;;
38853;SDS011;24606;51.992;4.198;2023-07-08T23:02:27;10.52;;;4.93;;
38853;SDS011;24606;51.992;4.198;2023-07-08T23:07:28;6.63;;;5.40;;
38853;SDS011;24606;51.992;4.198;2023-07-08T23:12:30;6.00;;;4.35;;
38853;SDS011;24606;51.992;4.198;2023-07-08T23:17:34;7.40;;;5.30;;
38853;SDS011;24606;51.992;4.198;2023-07-08T23:22:38;8.48;;;5.28;;
38853;SDS011;24606;51.992;4.198;2023-07-08T23:27:41;7.28;;;5.18;;
38853;SDS011;24606;51.992;4.198;2023-07-08T23:32:45;7.25;;;5.15;;
38853;SDS011;24606;51.992;4.198;2023-07-08T23:37:47;7.22;;;4.75;;
38853;SDS011;24606;51.992;4.198;2023-07-08T23:42:49;7.97;;;5.38;;
38853;SDS011;24606;51.992;4.198;2023-07-08T23:47:52;6.82;;;4.72;;
38853;SDS011;24606;51.992;4.198;2023-07-08T23:52:54;8.63;;;5.22;;
38853;SDS011;24606;51.992;4.198;2023-07-08T23:57:56;8.43;;;5.40;;
